Time;durP1;ratioP1;P1;durP2;ratioP2;P2;SDS_P1;SDS_P2;PMS_P1;PMS_P2;Temp;Humidity;BMP_temperature;BMP_pressure;BME280_temperature;BME280_humidity;BME280_pressure;Samples;Min_cycle;Max_cycle;Signal;HPM_P1;HPM_P2
2022/09/02 00:02:24;;;;;;;10.53;3.33;;;;;;;21.54;53.77;100619.53;5059954;28;20681;-65
2022/09/02 00:04:52;;;;;;;7.93;3.80;;;;;;;21.49;53.42;100622.03;5058568;28;20232;-64
2022/09/02 00:07:19;;;;;;;4.43;3.47;;;;;;;21.46;53.65;100617.88;5057005;28;20211;-66
2022/09/02 00:09:47;;;;;;;5.60;3.20;;;;;;;21.47;53.66;100618.72;5057555;28;20582;-65
2022/09/02 00:12:15;;;;;;;5.87;2.97;;;;;;;21.43;53.73;100625.59;5061167;28;20338;-64
2022/09/02 00:14:44;;;;;;;5.77;3.47;;;;;;;21.45;53.95;100620.81;5063041;28;20204;-65
2022/09/02 00:17:12;;;;;;;9.80;4.00;;;;;;;21.44;53.98;100620.00;5057802;28;20234;-65
2022/09/02 00:19:40;;;;;;;6.90;3.70;;;;;;;21.45;53.81;100612.72;5055404;28;20294;-65
2022/09/02 00:22:08;;;;;;;6.97;3.80;;;;;;;21.39;53.82;100617.91;5059694;28;20211;-65
2022/09/02 00:24:36;;;;;;;13.03;4.00;;;;;;;21.31;53.79;100623.56;5058639;28;20389;-64
2022/09/02 00:27:04;;;;;;;7.70;3.97;;;;;;;21.22;54.10;100621.31;5058907;28;20217;-64
2022/09/02 00:29:32;;;;;;;7.40;4.07;;;;;;;21.20;54.32;100616.13;5058519;28;20223;-65
2022/09/02 00:32:01;;;;;;;5.90;3.80;;;;;;;21.16;54.51;100616.75;5059294;28;20635;-64
2022/09/02 00:34:29;;;;;;;7.83;4.00;;;;;;;21.17;54.43;100613.88;5060446;28;20203;-65
2022/09/02 00:36:56;;;;;;;14.00;4.03;;;;;;;21.17;54.69;100618.41;5060107;28;20218;-64
2022/09/02 00:39:25;;;;;;;4.83;3.63;;;;;;;21.15;54.44;100607.00;5063671;28;20423;-65
2022/09/02 00:41:52;;;;;;;4.63;3.70;;;;;;;21.09;54.84;100611.41;5039785;28;20382;-65
2022/09/02 00:44:21;;;;;;;7.97;4.00;;;;;;;21.10;54.74;100612.22;5041162;28;20339;-65
2022/09/02 00:46:49;;;;;;;6.83;3.77;;;;;;;21.09;54.49;100606.00;5039883;28;20215;-65
2022/09/02 00:49:23;;;;;;;6.53;3.73;;;;;;;21.05;54.13;100602.06;5039626;28;20230;-65
2022/09/02 00:51:55;;;;;;;6.83;3.60;;;;;;;21.01;54.27;100609.78;5039847;28;20295;-65
2022/09/02 00:54:25;;;;;;;5.83;3.80;;;;;;;21.00;54.37;100596.50;5040334;28;20204;-65
2022/09/02 00:56:55;;;;;;;6.43;3.80;;;;;;;20.99;53.94;100595.66;5037621;28;20208;-65
2022/09/02 00:59:28;;;;;;;5.53;3.80;;;;;;;20.94;54.01;100600.84;5041886;28;20584;-65
2022/09/02 01:01:57;;;;;;;7.27;4.10;;;;;;;20.90;54.11;100602.34;5041146;28;20212;-65
2022/09/02 01:04:26;;;;;;;6.70;3.93;;;;;;;20.88;54.69;100606.28;5040802;28;20232;-65
2022/09/02 01:06:54;;;;;;;6.53;3.67;;;;;;;20.79;54.64;100597.59;5038047;28;20208;-64
2022/09/02 01:09:22;;;;;;;5.87;3.67;;;;;;;20.73;54.65;100600.31;5041117;28;20204;-65
2022/09/02 01:11:54;;;;;;;8.63;4.17;;;;;;;20.72;54.80;100604.03;5039575;28;20228;-65
2022/09/02 01:14:22;;;;;;;6.70;3.93;;;;;;;20.71;54.95;100600.53;5041582;28;20728;-66
2022/09/02 01:16:58;;;;;;;4.67;3.43;;;;;;;20.71;54.20;100592.44;5040822;28;21536;-66
2022/09/02 01:19:32;;;;;;;7.07;3.50;;;;;;;20.70;54.49;100593.47;5045056;28;20584;-66
2022/09/02 01:22:05;;;;;;;8.73;3.90;;;;;;;20.65;54.23;100595.97;5040351;28;20230;-65
2022/09/02 01:24:34;;;;;;;6.87;3.57;;;;;;;20.65;53.85;100601.38;5037315;28;20243;-65
2022/09/02 01:27:02;;;;;;;6.13;3.57;;;;;;;20.55;54.44;100606.34;5039850;28;20303;-65
2022/09/02 01:29:30;;;;;;;5.57;3.57;;;;;;;20.59;54.04;100600.31;5041012;28;20215;-66
2022/09/02 01:31:59;;;;;;;6.37;3.80;;;;;;;20.50;54.64;100601.59;5037340;28;20208;-65
2022/09/02 01:34:28;;;;;;;8.10;3.70;;;;;;;20.49;54.81;100596.44;5040313;28;20231;-64
2022/09/02 01:36:55;;;;;;;5.47;3.00;;;;;;;20.45;54.76;100597.88;5037800;28;20212;-66
2022/09/02 01:39:24;;;;;;;7.33;3.87;;;;;;;20.46;54.38;100594.97;5039917;28;20208;-65
2022/09/02 01:41:52;;;;;;;5.30;3.50;;;;;;;20.45;54.06;100595.19;5040564;28;20254;-64
2022/09/02 01:44:20;;;;;;;6.37;2.97;;;;;;;20.43;54.08;100597.25;5039297;28;20208;-65
2022/09/02 01:46:48;;;;;;;7.07;3.40;;;;;;;20.47;53.54;100596.63;5039702;28;20275;-65
2022/09/02 01:49:16;;;;;;;5.70;2.97;;;;;;;20.43;53.45;100595.38;5040777;28;20216;-65
2022/09/02 01:51:43;;;;;;;4.77;2.97;;;;;;;20.35;53.57;100592.91;5037642;28;20217;-64
2022/09/02 01:54:12;;;;;;;4.90;3.10;;;;;;;20.28;53.51;100586.69;5037015;28;20317;-65
2022/09/02 01:56:44;;;;;;;8.57;3.53;;;;;;;20.29;53.76;100593.72;5039178;28;20700;-65
2022/09/02 01:59:16;;;;;;;4.10;2.80;;;;;;;20.26;53.75;100591.44;5038595;28;20556;-65
2022/09/02 02:01:45;;;;;;;6.53;3.17;;;;;;;20.27;53.44;100587.72;5041995;28;20291;-64
2022/09/02 02:04:13;;;;;;;7.33;3.13;;;;;;;20.27;53.36;100585.84;5039453;28;20322;-65
2022/09/02 02:06:42;;;;;;;3.80;2.73;;;;;;;20.29;53.11;100593.72;5038168;28;20624;-65
2022/09/02 02:09:12;;;;;;;4.70;2.93;;;;;;;20.20;53.54;100590.41;5042087;28;20223;-65
2022/09/02 02:11:40;;;;;;;5.90;2.73;;;;;;;20.12;53.20;100590.63;5040509;28;20687;-64
2022/09/02 02:14:09;;;;;;;5.57;2.90;;;;;;;20.15;53.43;100583.97;5038865;28;20208;-64
2022/09/02 02:16:37;;;;;;;5.03;3.13;;;;;;;20.15;53.30;100592.06;5038562;28;20437;-65
2022/09/02 02:19:06;;;;;;;4.63;3.10;;;;;;;20.14;53.43;100591.22;5036510;28;20224;-65
2022/09/02 02:21:34;;;;;;;4.33;3.13;;;;;;;20.14;53.53;100598.50;5040754;28;20307;-65
2022/09/02 02:24:02;;;;;;;5.13;3.17;;;;;;;20.11;53.65;100593.53;5038301;28;20200;-65
2022/09/02 02:26:30;;;;;;;4.10;2.60;;;;;;;20.11;53.40;100594.34;5041323;28;20234;-65
2022/09/02 02:28:58;;;;;;;6.47;3.23;;;;;;;20.03;53.60;100596.41;5038129;28;20223;-63
2022/09/02 02:31:27;;;;;;;4.77;3.20;;;;;;;20.02;53.22;100592.06;5037151;28;20823;-64
2022/09/02 02:33:54;;;;;;;3.80;2.77;;;;;;;19.96;53.46;100587.53;5038357;28;20211;-64
2022/09/02 02:36:22;;;;;;;4.03;2.73;;;;;;;19.99;53.32;100587.09;5041890;28;20219;-65
2022/09/02 02:38:50;;;;;;;7.10;3.00;;;;;;;20.04;52.87;100590.00;5042215;28;20218;-65
2022/09/02 02:41:18;;;;;;;5.17;3.23;;;;;;;19.97;53.20;100589.97;5058876;28;20227;-64
2022/09/02 02:43:46;;;;;;;5.47;2.80;;;;;;;19.91;53.31;100591.66;5063793;28;20217;-64
2022/09/02 02:46:15;;;;;;;6.37;2.97;;;;;;;19.84;53.24;100590.00;5063691;28;20232;-66
2022/09/02 02:48:44;;;;;;;5.50;2.77;;;;;;;19.81;53.91;100593.91;5060017;28;20315;-64
2022/09/02 02:51:12;;;;;;;6.97;2.73;;;;;;;19.74;53.88;100593.06;5060493;28;20203;-66
2022/09/02 02:53:40;;;;;;;6.20;3.03;;;;;;;19.76;53.43;100588.31;5064441;28;20218;-65
2022/09/02 02:56:08;;;;;;;5.83;3.40;;;;;;;19.72;53.44;100583.53;5061073;28;20234;-65
2022/09/02 02:58:36;;;;;;;6.50;2.80;;;;;;;19.65;53.72;100586.22;5063740;28;20355;-65
2022/09/02 03:01:04;;;;;;;6.07;3.00;;;;;;;19.69;53.88;100582.13;5062769;28;20207;-65
2022/09/02 03:03:32;;;;;;;4.37;2.90;;;;;;;19.74;54.02;100573.41;5061645;28;20218;-65
2022/09/02 03:06:01;;;;;;;6.10;4.10;;;;;;;19.69;54.25;100574.03;5062079;28;20223;-65
2022/09/02 03:08:29;;;;;;;4.63;2.90;;;;;;;19.65;54.26;100586.22;5063853;28;20215;-65
2022/09/02 03:10:58;;;;;;;5.03;2.90;;;;;;;19.62;54.62;100573.19;5059589;28;20488;-65
2022/09/02 03:13:26;;;;;;;4.50;2.73;;;;;;;19.67;54.37;100577.97;5064819;28;20215;-65
2022/09/02 03:15:58;;;;;;;4.80;2.90;;;;;;;19.66;54.48;100573.63;5061685;28;20215;-64
2022/09/02 03:18:26;;;;;;;6.77;3.10;;;;;;;19.57;54.44;100577.53;5063019;28;20674;-64
2022/09/02 03:20:54;;;;;;;4.97;3.10;;;;;;;19.53;54.54;100577.91;5064704;28;20207;-64
2022/09/02 03:23:23;;;;;;;5.53;2.30;;;;;;;19.48;54.85;100583.09;5062135;28;20734;-64
2022/09/02 03:25:51;;;;;;;5.93;2.93;;;;;;;19.47;54.53;100583.25;5063620;28;20238;-64
2022/09/02 03:28:19;;;;;;;6.67;3.03;;;;;;;19.43;54.76;100579.34;5061868;28;20218;-64
2022/09/02 03:30:47;;;;;;;6.63;3.53;;;;;;;19.44;54.40;100579.09;5061929;28;20211;-64
2022/09/02 03:33:15;;;;;;;6.87;2.97;;;;;;;19.50;54.26;100577.53;5064257;28;20195;-64
2022/09/02 03:35:45;;;;;;;4.30;2.57;;;;;;;19.36;54.31;100576.59;5063794;28;20211;-65
2022/09/02 03:38:13;;;;;;;4.63;2.93;;;;;;;19.36;54.61;100573.09;5058143;28;20203;-64
2022/09/02 03:40:43;;;;;;;4.23;2.73;;;;;;;19.36;54.32;100581.16;5052853;28;20236;-65
2022/09/02 03:43:11;;;;;;;5.37;3.10;;;;;;;19.37;54.21;100572.06;5048011;28;20259;-65
2022/09/02 03:45:40;;;;;;;4.87;2.47;;;;;;;19.41;54.57;100576.00;5046135;28;20214;-63
2022/09/02 03:48:13;;;;;;;3.77;2.60;;;;;;;19.38;54.34;100579.09;5048193;28;20235;-64
2022/09/02 03:50:46;;;;;;;4.20;2.30;;;;;;;19.34;54.41;100577.88;5045632;28;20200;-65
2022/09/02 03:53:14;;;;;;;9.67;2.80;;;;;;;19.28;54.41;100574.09;5047281;28;20207;-64
2022/09/02 03:55:48;;;;;;;4.97;2.67;;;;;;;19.31;54.48;100573.72;5044972;28;20203;-65
2022/09/02 03:58:17;;;;;;;7.90;2.70;;;;;;;19.28;54.14;100571.41;5045068;28;20707;-64
2022/09/02 04:00:50;;;;;;;5.13;2.80;;;;;;;19.28;54.26;100567.91;5049611;28;20211;-64
2022/09/02 04:03:18;;;;;;;6.73;2.30;;;;;;;19.23;54.68;100570.38;5047064;28;20231;-64
2022/09/02 04:05:47;;;;;;;7.50;3.40;;;;;;;19.24;54.50;100566.66;5047028;28;20211;-64
2022/09/02 04:08:15;;;;;;;7.33;4.10;;;;;;;19.16;54.82;100565.81;5048247;28;20208;-64
2022/09/02 04:10:43;;;;;;;3.80;2.73;;;;;;;19.24;54.23;100574.72;5046671;28;20560;-64
2022/09/02 04:13:12;;;;;;;4.53;2.50;;;;;;;19.27;54.25;100568.91;5049685;28;20222;-64
2022/09/02 04:15:41;;;;;;;3.67;2.70;;;;;;;19.25;54.35;100569.16;5046712;28;20234;-64
2022/09/02 04:21:34;;;;;;;3.73;2.67;;;;;;;19.25;54.00;100574.53;5046308;28;20208;-64
2022/09/02 04:24:02;;;;;;;5.63;2.73;;;;;;;19.19;54.55;100572.63;5046178;28;20671;-64
2022/09/02 04:26:30;;;;;;;3.90;2.77;;;;;;;19.24;54.41;100577.41;5049997;28;20326;-64
2022/09/02 04:28:59;;;;;;;4.50;2.53;;;;;;;19.27;54.05;100577.00;5045159;28;20579;-64
2022/09/02 04:31:30;;;;;;;4.27;2.47;;;;;;;19.26;53.60;100573.47;5052209;28;20215;-64
2022/09/02 04:33:59;;;;;;;4.93;2.53;;;;;;;19.15;53.87;100582.13;5049462;28;20212;-64
2022/09/02 04:36:27;;;;;;;4.27;2.60;;;;;;;19.06;54.21;100576.09;5048321;28;20295;-64
2022/09/02 04:38:58;;;;;;;3.80;2.50;;;;;;;19.11;54.12;100583.56;5043714;28;20212;-64
2022/09/02 04:41:29;;;;;;;4.17;2.63;;;;;;;19.11;54.12;100584.38;5054547;28;20688;-64
2022/09/02 04:43:59;;;;;;;5.63;2.60;;;;;;;19.06;54.48;100575.28;5062955;28;20214;-64
2022/09/02 04:46:28;;;;;;;3.80;2.20;;;;;;;19.13;54.00;100576.97;5063076;28;20231;-64
2022/09/02 04:49:01;;;;;;;3.47;2.70;;;;;;;19.13;54.22;100576.97;5064898;28;20284;-64
2022/09/02 04:51:30;;;;;;;4.30;2.70;;;;;;;19.05;54.21;100579.00;5069036;28;20204;-64
2022/09/02 04:53:58;;;;;;;4.80;2.87;;;;;;;19.03;54.26;100581.88;5067545;28;20225;-65
2022/09/02 04:56:28;;;;;;;5.57;2.90;;;;;;;18.99;54.80;100580.63;5075320;28;20542;-64
2022/09/02 04:58:55;;;;;;;6.07;2.73;;;;;;;18.96;54.57;100589.09;5069096;28;20225;-64
2022/09/02 05:01:27;;;;;;;7.40;2.80;;;;;;;19.01;54.40;100583.94;5068766;28;20207;-64
2022/09/02 05:03:56;;;;;;;6.47;2.77;;;;;;;18.97;54.53;100598.81;5065234;28;20221;-65
2022/09/02 05:06:26;;;;;;;3.17;2.20;;;;;;;18.88;54.70;100591.94;5068097;28;20237;-64
2022/09/02 05:08:55;;;;;;;6.67;2.60;;;;;;;18.92;54.95;100595.88;5055206;28;20203;-64
2022/09/02 05:11:27;;;;;;;3.33;2.30;;;;;;;19.01;54.50;100589.31;5061510;28;20215;-64
2022/09/02 05:13:57;;;;;;;6.43;3.20;;;;;;;19.03;54.30;100589.94;5063377;28;20205;-63
2022/09/02 05:16:28;;;;;;;4.63;2.27;;;;;;;19.10;53.95;100582.72;5064976;28;20994;-64
2022/09/02 05:18:57;;;;;;;6.90;2.90;;;;;;;19.04;54.11;100588.91;5063274;28;20666;-65
2022/09/02 05:21:25;;;;;;;6.77;2.70;;;;;;;19.04;54.18;100591.59;5059896;28;20211;-65
2022/09/02 05:23:53;;;;;;;8.03;2.73;;;;;;;19.06;54.41;100596.78;5068558;28;20300;-65
2022/09/02 05:26:21;;;;;;;7.00;3.17;;;;;;;18.97;54.82;100598.81;5060464;28;20211;-64
2022/09/02 05:28:49;;;;;;;4.93;2.87;;;;;;;18.92;54.69;100590.50;5062998;28;20209;-65
2022/09/02 05:31:20;;;;;;;5.73;2.90;;;;;;;18.93;54.67;100592.16;5062200;28;20208;-64
2022/09/02 05:33:49;;;;;;;4.50;2.73;;;;;;;18.92;54.81;100592.34;5063375;28;20616;-65
2022/09/02 05:36:20;;;;;;;5.40;2.67;;;;;;;18.97;54.63;100596.13;5064506;28;20200;-64
2022/09/02 05:38:48;;;;;;;5.13;3.17;;;;;;;18.99;54.40;100595.94;5066570;28;20218;-65
2022/09/02 05:41:22;;;;;;;5.67;3.00;;;;;;;19.00;54.33;100593.00;5064619;28;20684;-64
2022/09/02 05:43:51;;;;;;;3.53;2.30;;;;;;;18.97;54.36;100596.13;5064561;28;20760;-65
2022/09/02 05:46:22;;;;;;;5.00;2.77;;;;;;;18.98;54.82;100599.63;5063039;28;20656;-65
2022/09/02 05:49:08;;;;;;;6.20;2.50;;;;;;;19.00;54.50;100593.00;5064162;28;20696;-65
2022/09/02 05:51:41;;;;;;;5.03;2.53;;;;;;;19.05;53.96;100600.50;5058047;28;20428;-65
2022/09/02 05:54:11;;;;;;;5.33;2.37;;;;;;;19.09;54.25;100599.88;5057764;28;20653;-65
2022/09/02 05:56:40;;;;;;;5.40;2.53;;;;;;;19.07;53.96;100593.06;5061866;28;20212;-65
2022/09/02 05:59:12;;;;;;;5.13;2.83;;;;;;;19.09;54.16;100596.34;5059414;28;20238;-64
2022/09/02 06:01:40;;;;;;;4.23;2.50;;;;;;;19.08;54.16;100600.94;5062000;28;20200;-64
2022/09/02 06:04:09;;;;;;;6.90;3.13;;;;;;;19.05;54.65;100601.31;5060056;28;20211;-64
2022/09/02 06:06:37;;;;;;;4.20;2.73;;;;;;;19.04;54.94;100596.16;5062551;28;20215;-64
2022/09/02 06:09:07;;;;;;;8.97;2.83;;;;;;;19.11;54.45;100603.19;5062578;28;20254;-64
2022/09/02 06:11:38;;;;;;;5.33;3.33;;;;;;;19.16;54.12;100598.06;5057629;28;20212;-66
2022/09/02 06:14:07;;;;;;;4.00;2.37;;;;;;;19.25;53.99;100595.19;5060632;28;21145;-64
2022/09/02 06:16:36;;;;;;;6.03;2.90;;;;;;;19.27;53.91;100601.19;5060039;28;20207;-64
2022/09/02 06:19:04;;;;;;;6.57;2.90;;;;;;;19.35;53.92;100595.66;5065467;28;20204;-64
2022/09/02 06:21:35;;;;;;;9.17;3.00;;;;;;;19.40;53.84;100590.50;5059475;28;20642;-64
2022/09/02 06:24:05;;;;;;;4.80;2.67;;;;;;;19.42;54.16;100585.75;5061227;28;20209;-64
2022/09/02 06:26:32;;;;;;;6.50;3.43;;;;;;;19.45;53.98;100590.69;5059455;28;20215;-65
2022/09/02 06:29:00;;;;;;;5.00;2.97;;;;;;;19.42;53.97;100591.13;5060340;28;20619;-64
2022/09/02 06:31:28;;;;;;;7.87;3.23;;;;;;;19.43;54.15;100592.78;5059481;28;20203;-64
2022/09/02 06:34:02;;;;;;;6.47;2.67;;;;;;;19.53;54.00;100587.84;5064482;28;20257;-64
2022/09/02 06:36:31;;;;;;;6.83;3.13;;;;;;;19.55;53.88;100585.78;5059629;28;20239;-64
2022/09/02 06:39:01;;;;;;;4.87;3.03;;;;;;;19.62;53.87;100589.31;5064197;28;20203;-66
2022/09/02 06:41:32;;;;;;;6.90;2.93;;;;;;;19.66;53.33;100587.88;5064809;28;20245;-63
2022/09/02 06:44:02;;;;;;;8.13;2.67;;;;;;;19.70;53.36;100581.06;5067089;28;20211;-65
2022/09/02 06:46:32;;;;;;;9.97;3.17;;;;;;;19.75;53.48;100586.66;5065940;28;20290;-64
2022/09/02 06:49:00;;;;;;;9.33;3.00;;;;;;;19.83;53.73;100583.78;5069053;28;20231;-64
2022/09/02 06:51:30;;;;;;;9.83;3.00;;;;;;;19.95;53.00;100585.88;5060417;28;20207;-64
2022/09/02 06:54:00;;;;;;;9.00;3.67;;;;;;;20.01;52.71;100590.41;5064652;28;20199;-64
2022/09/02 06:56:28;;;;;;;10.60;2.97;;;;;;;20.03;52.83;100586.47;5061906;28;20238;-64
2022/09/02 06:58:57;;;;;;;7.50;3.00;;;;;;;20.09;52.92;100587.50;5064484;28;20743;-64
2022/09/02 07:01:27;;;;;;;11.13;3.07;;;;;;;20.10;53.24;100581.94;5062119;28;21386;-64
2022/09/02 07:06:43;;;;;;;8.57;3.40;;;;;;;20.16;52.83;100583.78;5047045;28;20204;-64
2022/09/02 07:09:14;;;;;;;7.53;3.43;;;;;;;20.22;52.73;100580.28;5052176;28;20242;-64
2022/09/02 07:11:46;;;;;;;5.70;3.07;;;;;;;20.27;53.00;100588.53;5054141;28;20203;-65
2022/09/02 07:14:14;;;;;;;8.17;3.20;;;;;;;20.33;53.00;100589.56;5053112;28;20211;-65
2022/09/02 07:16:45;;;;;;;7.63;2.73;;;;;;;20.37;53.17;100590.84;5037115;28;20215;-64
2022/09/02 07:19:13;;;;;;;9.67;3.73;;;;;;;20.41;53.04;100580.47;5057635;28;20294;-63
2022/09/02 07:21:47;;;;;;;9.00;3.00;;;;;;;20.44;52.89;100583.56;5065572;28;20655;-64
2022/09/02 07:24:18;;;;;;;7.90;3.00;;;;;;;20.48;52.24;100579.44;5061772;28;20269;-64
2022/09/02 07:26:45;;;;;;;7.33;3.00;;;;;;;20.53;51.94;100584.19;5060605;28;20660;-64
2022/09/02 07:29:13;;;;;;;8.27;3.13;;;;;;;20.57;51.64;100585.44;5063621;28;20300;-64
2022/09/02 07:31:44;;;;;;;6.57;3.13;;;;;;;20.62;51.53;100586.44;5061279;28;20239;-65
2022/09/02 07:34:13;;;;;;;4.57;2.20;;;;;;;20.63;51.13;100580.03;5063611;28;20719;-65
2022/09/02 07:36:41;;;;;;;4.33;2.00;;;;;;;20.76;50.66;100587.22;5065133;28;20326;-65
2022/09/02 07:39:10;;;;;;;4.10;2.43;;;;;;;20.88;50.26;100580.16;5066314;28;20219;-65
2022/09/02 07:41:45;;;;;;;4.80;2.37;;;;;;;21.00;50.11;100588.41;5059435;28;20731;-66
2022/09/02 07:44:13;;;;;;;6.33;2.10;;;;;;;21.10;50.21;100579.88;5060393;28;20675;-65
2022/09/02 07:46:41;;;;;;;4.77;2.03;;;;;;;21.17;50.27;100568.03;5061811;28;20782;-65
2022/09/02 07:49:14;;;;;;;6.87;2.37;;;;;;;21.26;49.91;100574.03;5061051;28;20211;-65
2022/09/02 07:51:48;;;;;;;6.83;2.17;;;;;;;21.30;49.86;100576.06;5064550;28;20670;-65
2022/09/02 07:54:17;;;;;;;4.93;2.10;;;;;;;21.38;49.37;100566.88;5065193;28;20203;-65
2022/09/02 07:56:48;;;;;;;3.47;1.90;;;;;;;21.47;48.74;100570.16;5063780;28;20211;-64
2022/09/02 07:59:17;;;;;;;2.50;1.50;;;;;;;21.54;48.88;100565.56;5066503;28;20211;-65
2022/09/02 08:01:47;;;;;;;4.47;1.70;;;;;;;21.64;48.54;100568.59;5064228;28;20238;-65
2022/09/02 08:04:17;;;;;;;9.17;2.90;;;;;;;21.72;48.62;100562.94;5064354;28;20218;-65
2022/09/02 08:06:45;;;;;;;4.33;2.20;;;;;;;21.82;48.15;100567.84;5057416;28;20298;-64
2022/09/02 08:09:13;;;;;;;5.47;1.90;;;;;;;21.93;47.47;100565.25;5061462;28;20219;-65
2022/09/02 08:11:45;;;;;;;5.87;1.90;;;;;;;22.02;47.25;100579.34;5064239;28;20207;-65
2022/09/02 08:14:17;;;;;;;6.70;2.30;;;;;;;22.10;47.73;100566.41;5061513;28;20231;-65
2022/09/02 08:16:46;;;;;;;3.63;2.00;;;;;;;22.17;47.05;100565.50;5063088;28;20682;-65
2022/09/02 08:19:15;;;;;;;3.77;2.00;;;;;;;22.26;47.46;100569.56;5066522;28;20668;-65
2022/09/02 08:21:42;;;;;;;7.57;2.30;;;;;;;22.35;47.35;100571.78;5065373;28;20209;-64
2022/09/02 08:24:10;;;;;;;3.50;1.80;;;;;;;22.47;47.58;100561.06;5064687;28;20214;-64
2022/09/02 08:26:38;;;;;;;6.43;1.63;;;;;;;22.56;47.50;100567.84;5060539;28;20214;-65
2022/09/02 08:29:08;;;;;;;4.57;2.00;;;;;;;22.71;47.89;100568.28;5062924;28;20238;-63
2022/09/02 08:31:38;;;;;;;3.03;1.88;;;;;;;22.88;46.76;100563.94;5064450;28;20707;-64
2022/09/02 08:34:06;;;;;;;4.85;2.00;;;;;;;23.00;45.70;100563.19;5066388;28;20207;-64
2022/09/02 08:36:33;;;;;;;8.05;2.00;;;;;;;23.08;45.62;100563.72;5064376;28;20695;-64
2022/09/02 08:39:02;;;;;;;7.18;1.67;;;;;;;23.24;45.35;100557.66;5063132;28;20234;-65
2022/09/02 08:41:34;;;;;;;6.88;2.10;;;;;;;23.37;44.99;100553.97;5052764;28;20248;-64
2022/09/02 08:44:04;;;;;;;3.72;1.45;;;;;;;23.48;44.91;100555.91;5043213;28;20214;-66
2022/09/02 08:46:34;;;;;;;3.97;1.40;;;;;;;23.76;42.30;100549.84;5041741;28;20204;-65
2022/09/02 08:49:07;;;;;;;3.45;1.48;;;;;;;23.90;41.04;100542.38;5044538;28;20606;-64
2022/09/02 08:51:37;;;;;;;2.83;1.15;;;;;;;24.08;40.57;100547.69;5040128;28;20212;-64
2022/09/02 08:54:10;;;;;;;3.17;1.40;;;;;;;24.21;41.20;100546.63;5041668;28;20231;-65
2022/09/02 08:56:38;;;;;;;3.72;1.40;;;;;;;24.38;41.09;100545.69;5045505;28;20902;-65
2022/09/02 08:59:08;;;;;;;4.78;1.65;;;;;;;24.58;40.58;100545.31;5043343;28;20546;-65
2022/09/02 09:01:45;;;;;;;3.58;1.35;;;;;;;24.77;40.46;100547.88;5043995;28;20584;-64
2022/09/02 09:04:31;;;;;;;2.83;1.38;;;;;;;24.92;38.77;100542.81;5044031;28;20218;-65
2022/09/02 09:07:13;;;;;;;3.20;1.45;;;;;;;24.90;39.61;100540.28;5041053;28;20716;-65
2022/09/02 09:09:55;;;;;;;3.85;1.88;;;;;;;25.08;39.41;100540.16;5042551;28;20227;-66
2022/09/02 09:12:37;;;;;;;2.25;1.23;;;;;;;25.28;39.23;100534.28;5041591;28;20204;-65
2022/09/02 09:15:11;;;;;;;4.00;1.48;;;;;;;25.46;38.60;100527.84;5042822;28;20212;-63
2022/09/02 09:17:44;;;;;;;4.00;1.33;;;;;;;25.63;38.24;100533.31;5041252;28;22705;-65
2022/09/02 09:20:19;;;;;;;3.42;1.50;;;;;;;25.83;37.65;100518.19;5039376;28;20659;-64
2022/09/02 09:22:49;;;;;;;2.50;1.13;;;;;;;26.12;37.28;100512.66;5041078;28;20306;-65
2022/09/02 09:25:18;;;;;;;2.35;1.02;;;;;;;26.41;36.54;100519.63;5046023;28;20204;-65
2022/09/02 09:27:46;;;;;;;3.28;1.42;;;;;;;26.45;36.61;100512.63;5044277;28;20211;-64
2022/09/02 09:30:14;;;;;;;2.03;1.20;;;;;;;26.39;36.80;100505.44;5042800;28;20224;-65
2022/09/02 09:32:46;;;;;;;3.17;2.20;;;;;;;26.38;35.50;100509.25;5039684;28;20212;-65
2022/09/02 09:35:16;;;;;;;7.30;2.90;;;;;;;26.44;34.47;100508.25;5045007;28;20200;-64
2022/09/02 09:37:46;;;;;;;2.55;1.48;;;;;;;26.37;34.53;100507.63;5041348;28;20208;-64
2022/09/02 09:40:29;;;;;;;3.60;1.75;;;;;;;26.49;34.43;100510.19;5045997;28;20239;-65
2022/09/02 09:42:58;;;;;;;2.80;1.80;;;;;;;26.50;35.02;100506.41;5060090;28;20400;-64
2022/09/02 09:45:33;;;;;;;6.32;3.80;;;;;;;26.51;32.16;100492.56;5058607;28;20199;-65
2022/09/02 09:48:17;;;;;;;4.70;2.50;;;;;;;26.30;32.43;100490.63;5058897;28;20215;-64
2022/09/02 09:50:48;;;;;;;2.63;1.42;;;;;;;26.18;32.11;100484.47;5057495;28;20215;-65
2022/09/02 09:53:20;;;;;;;5.75;1.55;;;;;;;26.09;32.54;100494.13;5063713;28;20196;-64
2022/09/02 09:55:54;;;;;;;5.22;2.22;;;;;;;26.21;32.19;100486.69;5060343;28;20294;-60
2022/09/02 09:58:24;;;;;;;3.28;1.38;;;;;;;26.21;31.26;100486.69;5054478;28;20294;-60
2022/09/02 10:00:55;;;;;;;4.57;1.83;;;;;;;26.12;31.26;100477.34;5060944;28;20921;-60
2022/09/02 10:03:25;;;;;;;1.83;1.10;;;;;;;26.15;31.47;100474.91;5058827;28;20231;-59
2022/09/02 10:06:18;;;;;;;2.20;1.13;;;;;;;26.09;31.14;100478.66;5059483;28;20207;-59
2022/09/02 10:08:52;;;;;;;2.63;1.25;;;;;;;26.44;30.26;100481.06;5061383;28;20207;-61
2022/09/02 10:11:23;;;;;;;3.17;1.40;;;;;;;26.89;30.27;100480.78;5063151;28;20520;-61
2022/09/02 10:14:00;;;;;;;3.80;1.67;;;;;;;27.13;31.55;100473.19;5061198;28;21507;-65
2022/09/02 10:16:51;;;;;;;5.80;1.70;;;;;;;27.29;29.64;100471.41;5062839;28;20210;-64
2022/09/02 10:19:26;;;;;;;5.63;3.50;;;;;;;27.04;29.32;100472.00;5064412;28;20248;-65
2022/09/02 10:22:22;;;;;;;5.60;3.80;;;;;;;26.73;30.05;100470.00;5063744;28;20437;-65
2022/09/02 10:25:19;;;;;;;7.78;1.60;;;;;;;26.80;28.62;100463.28;5061705;28;20200;-65
2022/09/02 10:27:59;;;;;;;2.03;1.17;;;;;;;26.91;29.28;100477.84;5058908;28;20210;-66
2022/09/02 10:30:33;;;;;;;3.13;1.38;;;;;;;26.81;29.78;100474.97;5060548;28;20487;-65
2022/09/02 10:33:15;;;;;;;2.58;1.10;;;;;;;26.44;29.72;100464.75;5053080;28;20282;-65
2022/09/02 10:35:45;;;;;;;2.33;1.20;;;;;;;26.06;30.14;100456.56;5060983;28;20210;-65
2022/09/02 10:38:32;;;;;;;5.88;1.30;;;;;;;25.82;30.98;100464.09;5059404;28;20203;-66
2022/09/02 10:41:13;;;;;;;4.47;1.05;;;;;;;25.69;30.81;100454.38;5048842;28;20250;-66
2022/09/02 10:44:12;;;;;;;1.60;0.95;;;;;;;25.59;31.27;100453.41;5043401;28;20204;-64
2022/09/02 10:46:47;;;;;;;3.42;1.13;;;;;;;25.45;30.89;100447.47;5036427;28;20213;-66
2022/09/02 10:49:30;;;;;;;2.45;1.13;;;;;;;25.32;31.15;100439.66;5044621;28;20261;-65
2022/09/02 10:52:11;;;;;;;2.47;0.90;;;;;;;25.43;31.62;100452.31;5045434;28;20211;-64
2022/09/02 10:54:52;;;;;;;2.00;1.10;;;;;;;25.48;31.26;100449.69;5042914;28;20285;-65
2022/09/02 10:57:25;;;;;;;1.67;1.00;;;;;;;25.39;31.04;100443.03;5044916;28;20211;-65
2022/09/02 11:00:00;;;;;;;3.88;1.10;;;;;;;25.41;30.69;100443.59;5049492;28;20236;-65
2022/09/02 11:02:31;;;;;;;5.47;2.25;;;;;;;25.33;30.45;100431.25;5046324;28;20212;-65
2022/09/02 11:05:02;;;;;;;3.92;2.13;;;;;;;25.30;30.97;100428.22;5043957;28;20223;-64
2022/09/02 11:07:36;;;;;;;3.25;1.58;;;;;;;25.30;31.74;100420.91;5045583;28;20218;-64
2022/09/02 11:10:11;;;;;;;1.52;1.00;;;;;;;25.28;31.01;100416.78;5045583;28;20219;-64
2022/09/02 11:12:41;;;;;;;4.05;1.00;;;;;;;25.17;31.54;100409.50;5049018;28;20222;-64
2022/09/02 11:15:16;;;;;;;9.65;1.42;;;;;;;25.18;31.71;100411.16;5046041;28;20208;-64
2022/09/02 11:17:51;;;;;;;2.70;0.90;;;;;;;25.35;30.74;100417.44;5046623;28;20225;-64
2022/09/02 11:20:29;;;;;;;5.15;1.27;;;;;;;25.28;31.32;100417.59;5046930;28;20200;-65
2022/09/02 11:23:05;;;;;;;2.17;1.05;;;;;;;25.30;31.36;100414.63;5046788;28;20302;-64
2022/09/02 11:25:41;;;;;;;4.38;1.02;;;;;;;26.03;30.47;100414.44;5047979;28;20224;-65
2022/09/02 11:28:30;;;;;;;7.18;1.58;;;;;;;30.05;25.46;100396.56;5047843;28;20223;-64
2022/09/02 11:31:06;;;;;;;2.08;1.02;;;;;;;32.59;22.07;100403.56;5045544;28;20746;-66
2022/09/02 11:33:50;;;;;;;1.80;0.90;;;;;;;32.82;21.93;100397.19;5044382;28;20215;-64
2022/09/02 11:36:19;;;;;;;3.45;0.95;;;;;;;32.04;23.25;100386.66;5044223;28;20628;-65
2022/09/02 11:38:52;;;;;;;3.05;0.73;;;;;;;31.50;23.63;100381.44;5043616;28;20216;-64
2022/09/02 11:41:33;;;;;;;1.95;0.90;;;;;;;31.20;23.83;100382.56;5056549;28;20244;-65
2022/09/02 11:44:20;;;;;;;2.35;1.00;;;;;;;30.52;24.83;100388.72;5061396;28;20207;-66
2022/09/02 11:47:08;;;;;;;3.00;1.85;;;;;;;29.92;25.10;100387.00;5062471;28;20302;-65
2022/09/02 11:50:08;;;;;;;3.28;2.20;;;;;;;29.32;25.61;100380.53;5060160;28;20216;-63